sensor_id;sensor_type;location;lat;lon;timestamp;P1;durP1;ratioP1;P2;durP2;ratioP2
12332;SDS011;6232;48.094;11.288;2022-07-23T00:01:11;13.50;;;8.30;;
12332;SDS011;6232;48.094;11.288;2022-07-23T00:03:56;10.67;;;9.00;;
12332;SDS011;6232;48.094;11.288;2022-07-23T00:06:42;10.77;;;8.57;;
12332;SDS011;6232;48.094;11.288;2022-07-23T00:09:27;13.30;;;8.77;;
12332;SDS011;6232;48.094;11.288;2022-07-23T00:12:16;10.60;;;9.40;;
12332;SDS011;6232;48.094;11.288;2022-07-23T00:15:02;10.07;;;8.20;;
12332;SDS011;6232;48.094;11.288;2022-07-23T00:17:48;9.57;;;8.57;;
12332;SDS011;6232;48.094;11.288;2022-07-23T00:20:33;11.93;;;8.97;;
12332;SDS011;6232;48.094;11.288;2022-07-23T00:23:19;20.37;;;8.17;;
12332;SDS011;6232;48.094;11.288;2022-07-23T00:26:04;9.00;;;8.10;;
12332;SDS011;6232;48.094;11.288;2022-07-23T00:28:52;9.80;;;8.40;;
12332;SDS011;6232;48.094;11.288;2022-07-23T00:31:38;10.43;;;8.87;;
12332;SDS011;6232;48.094;11.288;2022-07-23T00:34:23;13.07;;;9.00;;
12332;SDS011;6232;48.094;11.288;2022-07-23T00:37:09;10.70;;;9.23;;
12332;SDS011;6232;48.094;11.288;2022-07-23T00:39:54;9.10;;;8.10;;
12332;SDS011;6232;48.094;11.288;2022-07-23T00:42:40;9.07;;;8.17;;
12332;SDS011;6232;48.094;11.288;2022-07-23T00:45:26;10.87;;;9.47;;
12332;SDS011;6232;48.094;11.288;2022-07-23T00:48:11;9.10;;;8.10;;
12332;SDS011;6232;48.094;11.288;2022-07-23T00:50:57;9.87;;;8.53;;
12332;SDS011;6232;48.094;11.288;2022-07-23T00:53:43;11.83;;;8.97;;
12332;SDS011;6232;48.094;11.288;2022-07-23T00:56:29;12.13;;;9.30;;
12332;SDS011;6232;48.094;11.288;2022-07-23T00:59:15;10.90;;;9.67;;
12332;SDS011;6232;48.094;11.288;2022-07-23T01:02:00;12.60;;;9.80;;
12332;SDS011;6232;48.094;11.288;2022-07-23T01:04:46;14.27;;;9.50;;
12332;SDS011;6232;48.094;11.288;2022-07-23T01:07:31;14.13;;;8.30;;
12332;SDS011;6232;48.094;11.288;2022-07-23T01:10:18;8.20;;;7.40;;
12332;SDS011;6232;48.094;11.288;2022-07-23T01:13:19;9.97;;;7.30;;
12332;SDS011;6232;48.094;11.288;2022-07-23T01:16:04;10.53;;;7.77;;
12332;SDS011;6232;48.094;11.288;2022-07-23T01:18:50;11.03;;;7.23;;
12332;SDS011;6232;48.094;11.288;2022-07-23T01:21:36;9.00;;;7.67;;
12332;SDS011;6232;48.094;11.288;2022-07-23T01:24:22;12.30;;;7.90;;
12332;SDS011;6232;48.094;11.288;2022-07-23T01:27:08;19.80;;;8.47;;
12332;SDS011;6232;48.094;11.288;2022-07-23T01:29:54;11.70;;;9.07;;
12332;SDS011;6232;48.094;11.288;2022-07-23T01:32:40;13.30;;;9.20;;
12332;SDS011;6232;48.094;11.288;2022-07-23T01:35:25;14.47;;;9.93;;
12332;SDS011;6232;48.094;11.288;2022-07-23T01:38:11;10.53;;;8.67;;
12332;SDS011;6232;48.094;11.288;2022-07-23T01:40:56;13.40;;;9.37;;
12332;SDS011;6232;48.094;11.288;2022-07-23T01:43:42;11.90;;;10.57;;
12332;SDS011;6232;48.094;11.288;2022-07-23T01:46:27;15.33;;;12.17;;
12332;SDS011;6232;48.094;11.288;2022-07-23T01:49:13;13.40;;;10.20;;
12332;SDS011;6232;48.094;11.288;2022-07-23T01:51:59;18.37;;;12.00;;
12332;SDS011;6232;48.094;11.288;2022-07-23T01:54:47;12.87;;;9.50;;
12332;SDS011;6232;48.094;11.288;2022-07-23T01:57:33;16.20;;;9.00;;
12332;SDS011;6232;48.094;11.288;2022-07-23T02:00:18;14.00;;;10.50;;
12332;SDS011;6232;48.094;11.288;2022-07-23T02:03:04;17.77;;;10.50;;
12332;SDS011;6232;48.094;11.288;2022-07-23T02:05:49;13.63;;;11.00;;
12332;SDS011;6232;48.094;11.288;2022-07-23T02:08:35;15.00;;;9.97;;
12332;SDS011;6232;48.094;11.288;2022-07-23T02:11:21;8.10;;;6.57;;
12332;SDS011;6232;48.094;11.288;2022-07-23T02:14:06;9.63;;;7.07;;
12332;SDS011;6232;48.094;11.288;2022-07-23T02:16:52;8.47;;;7.57;;
12332;SDS011;6232;48.094;11.288;2022-07-23T02:19:37;7.90;;;5.60;;
12332;SDS011;6232;48.094;11.288;2022-07-23T02:22:23;5.13;;;4.67;;
12332;SDS011;6232;48.094;11.288;2022-07-23T02:25:08;7.97;;;6.47;;
12332;SDS011;6232;48.094;11.288;2022-07-23T02:27:54;5.40;;;4.87;;
12332;SDS011;6232;48.094;11.288;2022-07-23T02:30:40;6.83;;;5.93;;
12332;SDS011;6232;48.094;11.288;2022-07-23T02:33:25;7.13;;;6.50;;
12332;SDS011;6232;48.094;11.288;2022-07-23T02:36:11;5.60;;;5.10;;
12332;SDS011;6232;48.094;11.288;2022-07-23T02:38:56;6.87;;;5.23;;
12332;SDS011;6232;48.094;11.288;2022-07-23T02:41:42;5.37;;;4.87;;
12332;SDS011;6232;48.094;11.288;2022-07-23T02:44:27;8.87;;;5.20;;
12332;SDS011;6232;48.094;11.288;2022-07-23T02:47:13;4.57;;;3.20;;
12332;SDS011;6232;48.094;11.288;2022-07-23T02:49:59;6.27;;;5.70;;
12332;SDS011;6232;48.094;11.288;2022-07-23T02:52:44;7.37;;;6.57;;
12332;SDS011;6232;48.094;11.288;2022-07-23T02:55:30;14.90;;;6.67;;
12332;SDS011;6232;48.094;11.288;2022-07-23T02:58:16;7.70;;;6.87;;
12332;SDS011;6232;48.094;11.288;2022-07-23T03:01:02;8.63;;;6.83;;
12332;SDS011;6232;48.094;11.288;2022-07-23T03:03:48;9.60;;;6.93;;
12332;SDS011;6232;48.094;11.288;2022-07-23T03:06:33;13.13;;;6.80;;
12332;SDS011;6232;48.094;11.288;2022-07-23T03:09:19;7.57;;;6.60;;
12332;SDS011;6232;48.094;11.288;2022-07-23T03:12:04;7.83;;;6.80;;
12332;SDS011;6232;48.094;11.288;2022-07-23T03:14:50;6.80;;;6.00;;
12332;SDS011;6232;48.094;11.288;2022-07-23T03:17:35;7.83;;;6.80;;
12332;SDS011;6232;48.094;11.288;2022-07-23T03:20:21;7.77;;;7.03;;
12332;SDS011;6232;48.094;11.288;2022-07-23T03:23:06;15.10;;;7.80;;
12332;SDS011;6232;48.094;11.288;2022-07-23T03:25:52;9.20;;;7.73;;
12332;SDS011;6232;48.094;11.288;2022-07-23T03:28:38;11.30;;;7.60;;
12332;SDS011;6232;48.094;11.288;2022-07-23T03:31:23;7.47;;;6.23;;
12332;SDS011;6232;48.094;11.288;2022-07-23T03:34:09;7.53;;;6.03;;
12332;SDS011;6232;48.094;11.288;2022-07-23T03:36:54;8.20;;;6.47;;
12332;SDS011;6232;48.094;11.288;2022-07-23T03:39:40;7.57;;;6.87;;
12332;SDS011;6232;48.094;11.288;2022-07-23T03:42:25;7.73;;;7.03;;
12332;SDS011;6232;48.094;11.288;2022-07-23T03:45:12;8.87;;;6.70;;
12332;SDS011;6232;48.094;11.288;2022-07-23T03:47:57;7.97;;;6.70;;
12332;SDS011;6232;48.094;11.288;2022-07-23T03:50:43;10.50;;;7.90;;
12332;SDS011;6232;48.094;11.288;2022-07-23T03:53:28;8.80;;;7.60;;
12332;SDS011;6232;48.094;11.288;2022-07-23T03:56:14;11.17;;;7.67;;
12332;SDS011;6232;48.094;11.288;2022-07-23T03:58:59;7.97;;;7.20;;
12332;SDS011;6232;48.094;11.288;2022-07-23T04:01:46;9.60;;;8.00;;
12332;SDS011;6232;48.094;11.288;2022-07-23T04:04:31;7.97;;;6.93;;
12332;SDS011;6232;48.094;11.288;2022-07-23T04:07:17;13.90;;;8.57;;
12332;SDS011;6232;48.094;11.288;2022-07-23T04:10:03;9.50;;;7.80;;
12332;SDS011;6232;48.094;11.288;2022-07-23T04:12:48;7.47;;;6.47;;
12332;SDS011;6232;48.094;11.288;2022-07-23T04:15:34;9.07;;;6.60;;
12332;SDS011;6232;48.094;11.288;2022-07-23T04:18:19;8.47;;;7.20;;
12332;SDS011;6232;48.094;11.288;2022-07-23T04:21:07;8.20;;;7.40;;
12332;SDS011;6232;48.094;11.288;2022-07-23T04:23:52;9.53;;;7.67;;
12332;SDS011;6232;48.094;11.288;2022-07-23T04:26:38;8.23;;;7.27;;
12332;SDS011;6232;48.094;11.288;2022-07-23T04:29:23;8.47;;;7.03;;
12332;SDS011;6232;48.094;11.288;2022-07-23T04:32:09;9.83;;;8.40;;
12332;SDS011;6232;48.094;11.288;2022-07-23T04:34:55;9.03;;;6.87;;
12332;SDS011;6232;48.094;11.288;2022-07-23T04:37:40;8.17;;;7.37;;
12332;SDS011;6232;48.094;11.288;2022-07-23T04:40:26;9.03;;;7.00;;
12332;SDS011;6232;48.094;11.288;2022-07-23T04:43:11;8.00;;;7.20;;
12332;SDS011;6232;48.094;11.288;2022-07-23T04:45:57;9.07;;;7.30;;
12332;SDS011;6232;48.094;11.288;2022-07-23T04:48:43;11.03;;;6.80;;
12332;SDS011;6232;48.094;11.288;2022-07-23T04:51:28;8.90;;;8.07;;
12332;SDS011;6232;48.094;11.288;2022-07-23T04:54:14;10.30;;;6.97;;
12332;SDS011;6232;48.094;11.288;2022-07-23T04:56:59;8.90;;;7.80;;
12332;SDS011;6232;48.094;11.288;2022-07-23T04:59:45;9.20;;;8.10;;
12332;SDS011;6232;48.094;11.288;2022-07-23T05:02:30;9.17;;;7.50;;
12332;SDS011;6232;48.094;11.288;2022-07-23T05:05:16;12.60;;;6.63;;
12332;SDS011;6232;48.094;11.288;2022-07-23T05:08:02;7.60;;;6.77;;
12332;SDS011;6232;48.094;11.288;2022-07-23T05:10:47;8.33;;;6.93;;
12332;SDS011;6232;48.094;11.288;2022-07-23T05:13:33;7.73;;;6.93;;
12332;SDS011;6232;48.094;11.288;2022-07-23T05:16:18;7.47;;;6.73;;
12332;SDS011;6232;48.094;11.288;2022-07-23T05:19:04;9.30;;;6.73;;
12332;SDS011;6232;48.094;11.288;2022-07-23T05:21:49;9.00;;;8.00;;
12332;SDS011;6232;48.094;11.288;2022-07-23T05:24:35;8.10;;;7.30;;
12332;SDS011;6232;48.094;11.288;2022-07-23T05:27:20;7.10;;;6.40;;
12332;SDS011;6232;48.094;11.288;2022-07-23T05:30:06;8.37;;;7.27;;
12332;SDS011;6232;48.094;11.288;2022-07-23T05:32:52;7.50;;;6.57;;
12332;SDS011;6232;48.094;11.288;2022-07-23T05:35:37;8.07;;;6.40;;
12332;SDS011;6232;48.094;11.288;2022-07-23T05:38:23;8.03;;;6.93;;
12332;SDS011;6232;48.094;11.288;2022-07-23T05:41:08;7.67;;;6.97;;
12332;SDS011;6232;48.094;11.288;2022-07-23T05:43:54;8.73;;;7.00;;
12332;SDS011;6232;48.094;11.288;2022-07-23T05:46:39;9.00;;;7.00;;
12332;SDS011;6232;48.094;11.288;2022-07-23T05:49:25;7.63;;;6.87;;
12332;SDS011;6232;48.094;11.288;2022-07-23T05:52:10;8.20;;;7.17;;
12332;SDS011;6232;48.094;11.288;2022-07-23T05:54:56;29.63;;;14.40;;
12332;SDS011;6232;48.094;11.288;2022-07-23T05:57:41;9.63;;;7.30;;
12332;SDS011;6232;48.094;11.288;2022-07-23T06:00:28;10.63;;;7.80;;
12332;SDS011;6232;48.094;11.288;2022-07-23T06:03:13;11.90;;;7.70;;
12332;SDS011;6232;48.094;11.288;2022-07-23T06:05:59;7.97;;;7.17;;
12332;SDS011;6232;48.094;11.288;2022-07-23T06:08:44;9.30;;;8.30;;
12332;SDS011;6232;48.094;11.288;2022-07-23T06:11:30;8.43;;;7.63;;
12332;SDS011;6232;48.094;11.288;2022-07-23T06:14:16;8.50;;;7.43;;
12332;SDS011;6232;48.094;11.288;2022-07-23T06:17:01;8.47;;;7.50;;
12332;SDS011;6232;48.094;11.288;2022-07-23T06:19:47;12.20;;;8.90;;
12332;SDS011;6232;48.094;11.288;2022-07-23T06:22:32;11.10;;;7.30;;
12332;SDS011;6232;48.094;11.288;2022-07-23T06:25:18;8.20;;;6.53;;
12332;SDS011;6232;48.094;11.288;2022-07-23T06:28:05;10.37;;;8.90;;
12332;SDS011;6232;48.094;11.288;2022-07-23T06:30:51;7.77;;;7.07;;
12332;SDS011;6232;48.094;11.288;2022-07-23T06:33:36;10.07;;;8.00;;
12332;SDS011;6232;48.094;11.288;2022-07-23T06:36:22;8.40;;;7.60;;
12332;SDS011;6232;48.094;11.288;2022-07-23T06:39:07;8.33;;;7.53;;
12332;SDS011;6232;48.094;11.288;2022-07-23T06:41:53;9.37;;;8.40;;
12332;SDS011;6232;48.094;11.288;2022-07-23T06:44:38;11.57;;;7.43;;
12332;SDS011;6232;48.094;11.288;2022-07-23T06:47:24;9.93;;;8.57;;
12332;SDS011;6232;48.094;11.288;2022-07-23T06:50:10;8.87;;;7.83;;
12332;SDS011;6232;48.094;11.288;2022-07-23T06:52:55;12.50;;;9.53;;
12332;SDS011;6232;48.094;11.288;2022-07-23T06:55:41;10.20;;;9.07;;
12332;SDS011;6232;48.094;11.288;2022-07-23T06:58:26;16.83;;;9.47;;
12332;SDS011;6232;48.094;11.288;2022-07-23T07:01:12;13.23;;;10.87;;
12332;SDS011;6232;48.094;11.288;2022-07-23T07:03:57;10.53;;;9.43;;
12332;SDS011;6232;48.094;11.288;2022-07-23T07:06:43;13.17;;;9.70;;
12332;SDS011;6232;48.094;11.288;2022-07-23T07:09:29;9.73;;;8.77;;
12332;SDS011;6232;48.094;11.288;2022-07-23T07:12:14;10.07;;;8.23;;
12332;SDS011;6232;48.094;11.288;2022-07-23T07:15:00;14.23;;;10.47;;
12332;SDS011;6232;48.094;11.288;2022-07-23T07:17:45;12.37;;;8.67;;
12332;SDS011;6232;48.094;11.288;2022-07-23T07:20:31;9.67;;;8.77;;
12332;SDS011;6232;48.094;11.288;2022-07-23T07:23:16;9.30;;;8.07;;
12332;SDS011;6232;48.094;11.288;2022-07-23T07:26:02;9.50;;;8.40;;
12332;SDS011;6232;48.094;11.288;2022-07-23T07:28:48;9.70;;;8.70;;
12332;SDS011;6232;48.094;11.288;2022-07-23T07:31:33;9.67;;;8.63;;
12332;SDS011;6232;48.094;11.288;2022-07-23T07:34:19;10.83;;;9.73;;
12332;SDS011;6232;48.094;11.288;2022-07-23T07:37:04;9.33;;;8.33;;
12332;SDS011;6232;48.094;11.288;2022-07-23T07:39:50;11.17;;;9.80;;
12332;SDS011;6232;48.094;11.288;2022-07-23T07:42:43;9.03;;;8.13;;
12332;SDS011;6232;48.094;11.288;2022-07-23T07:45:29;9.80;;;8.80;;
12332;SDS011;6232;48.094;11.288;2022-07-23T07:48:15;12.47;;;8.07;;
12332;SDS011;6232;48.094;11.288;2022-07-23T07:51:00;10.53;;;9.23;;
12332;SDS011;6232;48.094;11.288;2022-07-23T07:53:46;10.47;;;8.00;;
12332;SDS011;6232;48.094;11.288;2022-07-23T07:56:31;8.93;;;8.00;;
12332;SDS011;6232;48.094;11.288;2022-07-23T07:59:17;10.37;;;8.40;;
12332;SDS011;6232;48.094;11.288;2022-07-23T08:02:02;9.57;;;8.57;;
12332;SDS011;6232;48.094;11.288;2022-07-23T08:04:48;15.50;;;8.60;;
12332;SDS011;6232;48.094;11.288;2022-07-23T08:07:34;9.80;;;8.83;;
12332;SDS011;6232;48.094;11.288;2022-07-23T08:10:19;12.30;;;7.53;;
12332;SDS011;6232;48.094;11.288;2022-07-23T08:13:05;8.70;;;7.80;;
12332;SDS011;6232;48.094;11.288;2022-07-23T08:15:50;10.03;;;8.40;;
12332;SDS011;6232;48.094;11.288;2022-07-23T08:18:38;10.43;;;7.77;;
12332;SDS011;6232;48.094;11.288;2022-07-23T08:21:23;10.70;;;8.03;;
12332;SDS011;6232;48.094;11.288;2022-07-23T08:24:09;9.57;;;8.07;;
12332;SDS011;6232;48.094;11.288;2022-07-23T08:26:54;9.13;;;7.80;;
12332;SDS011;6232;48.094;11.288;2022-07-23T08:29:40;10.03;;;8.90;;
12332;SDS011;6232;48.094;11.288;2022-07-23T08:32:25;6.97;;;6.23;;
12332;SDS011;6232;48.094;11.288;2022-07-23T08:35:11;9.37;;;6.93;;
12332;SDS011;6232;48.094;11.288;2022-07-23T08:37:57;7.93;;;6.90;;
12332;SDS011;6232;48.094;11.288;2022-07-23T08:40:44;9.93;;;6.77;;
12332;SDS011;6232;48.094;11.288;2022-07-23T08:43:30;7.78;;;6.97;;
12332;SDS011;6232;48.094;11.288;2022-07-23T08:46:16;7.23;;;6.63;;
12332;SDS011;6232;48.094;11.288;2022-07-23T08:49:04;6.10;;;5.50;;
12332;SDS011;6232;48.094;11.288;2022-07-23T08:51:50;8.40;;;6.07;;
12332;SDS011;6232;48.094;11.288;2022-07-23T08:54:35;7.90;;;6.13;;
12332;SDS011;6232;48.094;11.288;2022-07-23T08:57:21;7.57;;;6.43;;
12332;SDS011;6232;48.094;11.288;2022-07-23T09:00:07;7.07;;;6.37;;
12332;SDS011;6232;48.094;11.288;2022-07-23T09:02:53;6.17;;;5.40;;
12332;SDS011;6232;48.094;11.288;2022-07-23T09:05:38;8.57;;;6.23;;
12332;SDS011;6232;48.094;11.288;2022-07-23T09:08:25;6.30;;;5.80;;
12332;SDS011;6232;48.094;11.288;2022-07-23T09:11:11;6.87;;;6.17;;
12332;SDS011;6232;48.094;11.288;2022-07-23T09:13:58;6.53;;;5.93;;
12332;SDS011;6232;48.094;11.288;2022-07-23T09:16:46;6.60;;;6.00;;
12332;SDS011;6232;48.094;11.288;2022-07-23T09:19:32;6.03;;;5.43;;
12332;SDS011;6232;48.094;11.288;2022-07-23T09:22:18;9.50;;;6.80;;
12332;SDS011;6232;48.094;11.288;2022-07-23T09:27:59;6.73;;;6.13;;
12332;SDS011;6232;48.094;11.288;2022-07-23T09:30:48;6.30;;;5.70;;
12332;SDS011;6232;48.094;11.288;2022-07-23T09:33:36;6.90;;;6.20;;
12332;SDS011;6232;48.094;11.288;2022-07-23T09:36:28;8.03;;;6.53;;
12332;SDS011;6232;48.094;11.288;2022-07-23T09:39:14;7.10;;;6.40;;
12332;SDS011;6232;48.094;11.288;2022-07-23T09:42:13;6.63;;;5.70;;
12332;SDS011;6232;48.094;11.288;2022-07-23T09:44:59;7.77;;;5.40;;
12332;SDS011;6232;48.094;11.288;2022-07-23T09:47:45;6.07;;;5.57;;
12332;SDS011;6232;48.094;11.288;2022-07-23T09:50:31;5.23;;;4.70;;
12332;SDS011;6232;48.094;11.288;2022-07-23T09:53:24;6.13;;;5.50;;
12332;SDS011;6232;48.094;11.288;2022-07-23T09:56:11;7.13;;;5.23;;
12332;SDS011;6232;48.094;11.288;2022-07-23T09:58:58;5.50;;;5.00;;
12332;SDS011;6232;48.094;11.288;2022-07-23T10:01:49;8.73;;;5.60;;
12332;SDS011;6232;48.094;11.288;2022-07-23T10:04:35;5.67;;;4.80;;
12332;SDS011;6232;48.094;11.288;2022-07-23T10:07:21;6.80;;;4.83;;
12332;SDS011;6232;48.094;11.288;2022-07-23T10:10:08;4.80;;;4.33;;
12332;SDS011;6232;48.094;11.288;2022-07-23T10:12:55;5.77;;;4.00;;
12332;SDS011;6232;48.094;11.288;2022-07-23T10:15:59;6.93;;;4.40;;
12332;SDS011;6232;48.094;11.288;2022-07-23T10:18:48;5.83;;;3.97;;
12332;SDS011;6232;48.094;11.288;2022-07-23T10:21:37;4.70;;;4.30;;
12332;SDS011;6232;48.094;11.288;2022-07-23T10:30:18;5.63;;;4.00;;
12332;SDS011;6232;48.094;11.288;2022-07-23T10:33:20;5.60;;;5.10;;
12332;SDS011;6232;48.094;11.288;2022-07-23T10:36:24;5.43;;;4.60;;
12332;SDS011;6232;48.094;11.288;2022-07-23T10:44:55;5.30;;;4.80;;
12332;SDS011;6232;48.094;11.288;2022-07-23T10:47:40;6.17;;;4.80;;
12332;SDS011;6232;48.094;11.288;2022-07-23T10:50:27;5.63;;;5.13;;
12332;SDS011;6232;48.094;11.288;2022-07-23T10:53:16;5.87;;;5.37;;
12332;SDS011;6232;48.094;11.288;2022-07-23T10:56:02;8.40;;;5.13;;
12332;SDS011;6232;48.094;11.288;2022-07-23T10:58:49;5.97;;;5.47;;
12332;SDS011;6232;48.094;11.288;2022-07-23T11:01:36;5.83;;;5.27;;
12332;SDS011;6232;48.094;11.288;2022-07-23T11:04:33;6.90;;;5.00;;
12332;SDS011;6232;48.094;11.288;2022-07-23T11:07:27;8.60;;;5.23;;
12332;SDS011;6232;48.094;11.288;2022-07-23T11:10:31;11.10;;;6.07;;
12332;SDS011;6232;48.094;11.288;2022-07-23T11:16:21;5.97;;;5.37;;
12332;SDS011;6232;48.094;11.288;2022-07-23T11:19:07;6.17;;;5.57;;
12332;SDS011;6232;48.094;11.288;2022-07-23T11:21:53;7.27;;;6.23;;
12332;SDS011;6232;48.094;11.288;2022-07-23T11:24:50;5.90;;;5.30;;
12332;SDS011;6232;48.094;11.288;2022-07-23T11:27:36;6.50;;;5.47;;
12332;SDS011;6232;48.094;11.288;2022-07-23T11:36:00;7.40;;;5.77;;
12332;SDS011;6232;48.094;11.288;2022-07-23T11:38:47;7.40;;;6.70;;
12332;SDS011;6232;48.094;11.288;2022-07-23T11:41:44;6.40;;;5.80;;
12332;SDS011;6232;48.094;11.288;2022-07-23T11:44:33;6.60;;;6.00;;
12332;SDS011;6232;48.094;11.288;2022-07-23T11:47:23;5.47;;;4.97;;
12332;SDS011;6232;48.094;11.288;2022-07-23T11:50:09;8.87;;;6.03;;
12332;SDS011;6232;48.094;11.288;2022-07-23T11:52:55;5.57;;;4.80;;
12332;SDS011;6232;48.094;11.288;2022-07-23T11:55:40;6.20;;;5.60;;
12332;SDS011;6232;48.094;11.288;2022-07-23T11:58:26;5.93;;;5.37;;
12332;SDS011;6232;48.094;11.288;2022-07-23T12:01:11;8.40;;;5.90;;
12332;SDS011;6232;48.094;11.288;2022-07-23T12:03:57;7.43;;;6.67;;
12332;SDS011;6232;48.094;11.288;2022-07-23T12:06:43;6.10;;;5.60;;
12332;SDS011;6232;48.094;11.288;2022-07-23T12:09:28;7.27;;;5.60;;
12332;SDS011;6232;48.094;11.288;2022-07-23T12:12:14;7.77;;;6.60;;
12332;SDS011;6232;48.094;11.288;2022-07-23T12:14:59;7.10;;;6.37;;
12332;SDS011;6232;48.094;11.288;2022-07-23T12:17:45;7.03;;;6.33;;
12332;SDS011;6232;48.094;11.288;2022-07-23T12:20:33;8.03;;;6.37;;
12332;SDS011;6232;48.094;11.288;2022-07-23T12:23:20;6.70;;;5.80;;
12332;SDS011;6232;48.094;11.288;2022-07-23T12:26:05;8.57;;;6.20;;
12332;SDS011;6232;48.094;11.288;2022-07-23T12:28:52;7.33;;;6.53;;
12332;SDS011;6232;48.094;11.288;2022-07-23T12:31:38;8.40;;;5.40;;
12332;SDS011;6232;48.094;11.288;2022-07-23T12:34:23;5.83;;;5.30;;
12332;SDS011;6232;48.094;11.288;2022-07-23T12:37:24;14.30;;;5.73;;
12332;SDS011;6232;48.094;11.288;2022-07-23T12:43:09;6.77;;;6.17;;
12332;SDS011;6232;48.094;11.288;2022-07-23T12:45:57;6.57;;;5.40;;
12332;SDS011;6232;48.094;11.288;2022-07-23T12:51:37;8.17;;;5.90;;
12332;SDS011;6232;48.094;11.288;2022-07-23T12:54:27;7.33;;;6.60;;
12332;SDS011;6232;48.094;11.288;2022-07-23T12:57:13;8.43;;;6.87;;
12332;SDS011;6232;48.094;11.288;2022-07-23T13:00:08;7.07;;;6.40;;
12332;SDS011;6232;48.094;11.288;2022-07-23T13:02:54;6.43;;;5.70;;
12332;SDS011;6232;48.094;11.288;2022-07-23T13:05:40;9.50;;;6.10;;
12332;SDS011;6232;48.094;11.288;2022-07-23T13:08:26;7.00;;;5.67;;
12332;SDS011;6232;48.094;11.288;2022-07-23T13:11:12;7.73;;;6.80;;
12332;SDS011;6232;48.094;11.288;2022-07-23T13:13:58;7.63;;;6.83;;
12332;SDS011;6232;48.094;11.288;2022-07-23T13:16:45;10.37;;;6.27;;
12332;SDS011;6232;48.094;11.288;2022-07-23T13:19:31;5.63;;;5.13;;
12332;SDS011;6232;48.094;11.288;2022-07-23T13:22:17;7.03;;;5.67;;
12332;SDS011;6232;48.094;11.288;2022-07-23T13:25:02;8.40;;;5.27;;
12332;SDS011;6232;48.094;11.288;2022-07-23T13:27:48;7.10;;;6.13;;
12332;SDS011;6232;48.094;11.288;2022-07-23T13:30:33;6.30;;;5.70;;
12332;SDS011;6232;48.094;11.288;2022-07-23T13:33:20;9.63;;;7.30;;
12332;SDS011;6232;48.094;11.288;2022-07-23T13:36:06;6.13;;;5.60;;
12332;SDS011;6232;48.094;11.288;2022-07-23T13:38:51;6.70;;;5.73;;
12332;SDS011;6232;48.094;11.288;2022-07-23T13:41:40;5.67;;;4.97;;
12332;SDS011;6232;48.094;11.288;2022-07-23T13:44:25;6.83;;;6.10;;
12332;SDS011;6232;48.094;11.288;2022-07-23T13:47:11;6.60;;;6.00;;
12332;SDS011;6232;48.094;11.288;2022-07-23T13:49:57;7.90;;;7.07;;
12332;SDS011;6232;48.094;11.288;2022-07-23T13:52:42;7.00;;;6.00;;
12332;SDS011;6232;48.094;11.288;2022-07-23T13:55:28;6.60;;;5.93;;
12332;SDS011;6232;48.094;11.288;2022-07-23T13:58:14;9.63;;;6.80;;
12332;SDS011;6232;48.094;11.288;2022-07-23T14:00:59;7.00;;;5.87;;
12332;SDS011;6232;48.094;11.288;2022-07-23T14:03:45;7.73;;;6.33;;
12332;SDS011;6232;48.094;11.288;2022-07-23T14:06:30;7.13;;;6.47;;
12332;SDS011;6232;48.094;11.288;2022-07-23T14:09:16;6.60;;;5.90;;
12332;SDS011;6232;48.094;11.288;2022-07-23T14:12:02;6.73;;;6.13;;
12332;SDS011;6232;48.094;11.288;2022-07-23T14:14:48;7.30;;;6.30;;
12332;SDS011;6232;48.094;11.288;2022-07-23T14:17:33;6.80;;;6.13;;
12332;SDS011;6232;48.094;11.288;2022-07-23T14:20:19;6.90;;;6.20;;
12332;SDS011;6232;48.094;11.288;2022-07-23T14:23:05;7.03;;;6.33;;
12332;SDS011;6232;48.094;11.288;2022-07-23T14:25:50;7.80;;;7.00;;
12332;SDS011;6232;48.094;11.288;2022-07-23T14:28:36;6.83;;;6.13;;
12332;SDS011;6232;48.094;11.288;2022-07-23T14:31:21;7.80;;;6.97;;
12332;SDS011;6232;48.094;11.288;2022-07-23T14:34:07;6.57;;;5.97;;
12332;SDS011;6232;48.094;11.288;2022-07-23T14:36:53;6.13;;;5.53;;
12332;SDS011;6232;48.094;11.288;2022-07-23T14:39:39;7.97;;;6.50;;
12332;SDS011;6232;48.094;11.288;2022-07-23T14:42:25;8.33;;;6.60;;
12332;SDS011;6232;48.094;11.288;2022-07-23T14:45:11;9.60;;;7.30;;
12332;SDS011;6232;48.094;11.288;2022-07-23T14:47:56;10.60;;;6.77;;
12332;SDS011;6232;48.094;11.288;2022-07-23T14:50:42;7.20;;;6.50;;
12332;SDS011;6232;48.094;11.288;2022-07-23T14:53:28;8.70;;;7.33;;
12332;SDS011;6232;48.094;11.288;2022-07-23T14:56:13;10.80;;;7.63;;
12332;SDS011;6232;48.094;11.288;2022-07-23T14:58:59;8.03;;;7.23;;
12332;SDS011;6232;48.094;11.288;2022-07-23T15:01:45;7.87;;;6.77;;
12332;SDS011;6232;48.094;11.288;2022-07-23T15:04:30;8.17;;;7.37;;
12332;SDS011;6232;48.094;11.288;2022-07-23T15:07:16;7.53;;;6.77;;
12332;SDS011;6232;48.094;11.288;2022-07-23T15:10:01;7.60;;;6.80;;
12332;SDS011;6232;48.094;11.288;2022-07-23T15:12:47;7.70;;;6.90;;
12332;SDS011;6232;48.094;11.288;2022-07-23T15:15:32;7.40;;;6.07;;
12332;SDS011;6232;48.094;11.288;2022-07-23T15:18:18;11.47;;;7.20;;
12332;SDS011;6232;48.094;11.288;2022-07-23T15:21:03;9.90;;;6.77;;
12332;SDS011;6232;48.094;11.288;2022-07-23T15:23:49;7.07;;;6.43;;
12332;SDS011;6232;48.094;11.288;2022-07-23T15:26:35;7.13;;;6.43;;
12332;SDS011;6232;48.094;11.288;2022-07-23T15:29:20;7.07;;;6.37;;
12332;SDS011;6232;48.094;11.288;2022-07-23T15:32:06;12.73;;;6.80;;
12332;SDS011;6232;48.094;11.288;2022-07-23T15:34:52;9.03;;;6.27;;
12332;SDS011;6232;48.094;11.288;2022-07-23T15:37:38;7.37;;;5.90;;
12332;SDS011;6232;48.094;11.288;2022-07-23T15:40:23;6.17;;;5.57;;
12332;SDS011;6232;48.094;11.288;2022-07-23T15:43:09;7.10;;;6.40;;
12332;SDS011;6232;48.094;11.288;2022-07-23T15:45:54;7.27;;;5.90;;
12332;SDS011;6232;48.094;11.288;2022-07-23T15:48:40;6.70;;;6.03;;
12332;SDS011;6232;48.094;11.288;2022-07-23T15:51:27;6.87;;;5.20;;
12332;SDS011;6232;48.094;11.288;2022-07-23T15:54:14;6.13;;;5.53;;
12332;SDS011;6232;48.094;11.288;2022-07-23T15:56:59;6.10;;;5.50;;
12332;SDS011;6232;48.094;11.288;2022-07-23T15:59:45;7.20;;;6.03;;
12332;SDS011;6232;48.094;11.288;2022-07-23T16:02:31;6.93;;;6.23;;
12332;SDS011;6232;48.094;11.288;2022-07-23T16:05:16;7.00;;;6.30;;
12332;SDS011;6232;48.094;11.288;2022-07-23T16:08:18;6.07;;;5.47;;
12332;SDS011;6232;48.094;11.288;2022-07-23T16:11:05;6.80;;;6.10;;
12332;SDS011;6232;48.094;11.288;2022-07-23T16:13:51;6.60;;;5.90;;
12332;SDS011;6232;48.094;11.288;2022-07-23T16:16:36;9.57;;;5.53;;
12332;SDS011;6232;48.094;11.288;2022-07-23T16:19:22;7.57;;;6.23;;
12332;SDS011;6232;48.094;11.288;2022-07-23T16:22:08;6.90;;;6.20;;
12332;SDS011;6232;48.094;11.288;2022-07-23T16:24:55;6.90;;;6.17;;
12332;SDS011;6232;48.094;11.288;2022-07-23T16:27:42;7.27;;;6.60;;
12332;SDS011;6232;48.094;11.288;2022-07-23T16:30:27;7.00;;;6.37;;
12332;SDS011;6232;48.094;11.288;2022-07-23T16:33:13;7.27;;;6.40;;
12332;SDS011;6232;48.094;11.288;2022-07-23T16:35:58;7.57;;;6.77;;
12332;SDS011;6232;48.094;11.288;2022-07-23T16:38:44;8.50;;;6.60;;
12332;SDS011;6232;48.094;11.288;2022-07-23T16:41:30;8.00;;;7.17;;
12332;SDS011;6232;48.094;11.288;2022-07-23T16:44:16;8.30;;;7.40;;
12332;SDS011;6232;48.094;11.288;2022-07-23T16:47:02;6.60;;;6.00;;
12332;SDS011;6232;48.094;11.288;2022-07-23T16:49:48;8.57;;;7.77;;
12332;SDS011;6232;48.094;11.288;2022-07-23T16:52:34;8.53;;;7.30;;
12332;SDS011;6232;48.094;11.288;2022-07-23T16:55:19;8.70;;;7.30;;
12332;SDS011;6232;48.094;11.288;2022-07-23T16:58:05;9.67;;;7.10;;
12332;SDS011;6232;48.094;11.288;2022-07-23T17:00:51;8.47;;;7.57;;
12332;SDS011;6232;48.094;11.288;2022-07-23T17:03:36;9.20;;;7.40;;
12332;SDS011;6232;48.094;11.288;2022-07-23T17:06:22;9.10;;;6.83;;